Baxter, Tennessee
Current Conditions -  °F | °C
As of 4:15 PM on Sunday 23 Nov 2014 (Local Time) from KSRB Reporting Station
Overcast Overcast  
Wind Chill: 57°   Ceiling: 1800
Heat Index: 57°   Visibility: 4mi
Dew Point: 55°   Wind: 14mph
Humidity: 94%   Direction: 150°SSE
Pressure: 29.48"   Gusts: NA
Location:  36.15°N, 85.64°W
Report Text: KSRB 232215Z AUTO 15012KT 4SM FEW010 BKN018 OVC025 14/13 A2948 RMK
Loading
Personal Weather Stations






























Interactive Weather Map New forecast layout! Learn more

10-Day Weather Forecast

Advertisements
Track Severe Weather on mobile